createdAt,value
2022-11-25T00:01:17.540Z,86.80
2022-11-25T00:03:45.800Z,87.10
2022-11-25T00:06:15.119Z,87.10
2022-11-25T00:08:46.689Z,87.00
2022-11-25T00:11:15.065Z,87.10
2022-11-25T00:13:43.281Z,87.20
2022-11-25T00:16:13.722Z,87.10
2022-11-25T00:18:43.603Z,87.20
2022-11-25T00:21:12.098Z,87.20
2022-11-25T00:23:39.540Z,87.20
2022-11-25T00:26:08.288Z,87.00
2022-11-25T00:28:35.552Z,87.20
2022-11-25T00:31:10.486Z,87.30
2022-11-25T00:33:39.347Z,87.50
2022-11-25T00:36:12.903Z,87.60
2022-11-25T00:38:40.307Z,87.80
2022-11-25T00:41:25.982Z,87.90
2022-11-25T00:44:11.939Z,87.90
2022-11-25T00:46:38.824Z,88.20
2022-11-25T00:49:07.508Z,88.20
2022-11-25T00:51:34.903Z,88.00
2022-11-25T00:54:01.774Z,88.10
2022-11-25T00:56:30.357Z,88.20
2022-11-25T00:58:57.451Z,88.30
2022-11-25T01:01:24.812Z,88.40
2022-11-25T01:03:52.529Z,88.50
2022-11-25T01:06:22.344Z,88.50
2022-11-25T01:08:49.179Z,88.50
2022-11-25T01:11:18.304Z,88.60
2022-11-25T01:13:45.752Z,88.50
2022-11-25T01:16:14.644Z,88.30
2022-11-25T01:18:42.316Z,88.50
2022-11-25T01:21:11.134Z,88.70
2022-11-25T01:23:39.786Z,88.50
2022-11-25T01:26:09.271Z,88.60
2022-11-25T01:28:36.602Z,88.70
2022-11-25T01:31:04.764Z,88.60
2022-11-25T01:33:32.786Z,88.50
2022-11-25T01:36:01.751Z,88.50
2022-11-25T01:38:28.895Z,88.60
2022-11-25T01:40:57.391Z,88.50
2022-11-25T01:43:24.788Z,88.70
2022-11-25T01:45:52.476Z,88.80
2022-11-25T01:48:24.771Z,88.70
2022-11-25T01:50:52.377Z,88.70
2022-11-25T01:53:22.128Z,88.60
2022-11-25T01:55:53.527Z,88.80
2022-11-25T01:58:28.590Z,88.80
2022-11-25T02:00:55.635Z,88.80
2022-11-25T02:03:27.232Z,88.90
2022-11-25T02:06:00.391Z,89.00
2022-11-25T02:08:27.666Z,88.90
2022-11-25T02:10:55.814Z,89.00
2022-11-25T02:13:24.864Z,88.80
2022-11-25T02:15:51.917Z,89.00
2022-11-25T02:18:19.160Z,89.00
2022-11-25T02:20:46.170Z,88.90
2022-11-25T02:23:19.618Z,88.90
2022-11-25T02:25:48.110Z,88.90
2022-11-25T02:28:17.326Z,89.00
2022-11-25T02:30:45.643Z,89.20
2022-11-25T02:33:12.937Z,89.30
2022-11-25T02:35:41.473Z,89.30
2022-11-25T02:38:12.046Z,89.20
2022-11-25T02:40:47.765Z,89.20
2022-11-25T02:43:16.837Z,89.10
2022-11-25T02:45:58.668Z,89.10
2022-11-25T02:48:52.953Z,89.20
2022-11-25T02:51:17.092Z,89.20
2022-11-25T02:53:44.450Z,89.30
2022-11-25T02:56:12.915Z,89.30
2022-11-25T02:58:42.247Z,89.40
2022-11-25T03:01:09.638Z,89.40
2022-11-25T03:03:36.746Z,89.40
2022-11-25T03:06:04.381Z,89.40
2022-11-25T03:08:31.295Z,89.40
2022-11-25T03:10:58.122Z,89.40
2022-11-25T03:13:25.301Z,89.30
2022-11-25T03:15:53.902Z,89.40
2022-11-25T03:18:20.747Z,89.50
2022-11-25T03:20:54.693Z,89.50
2022-11-25T03:23:21.938Z,89.50
2022-11-25T03:25:49.505Z,89.30
2022-11-25T03:28:16.680Z,89.40
2022-11-25T03:30:43.859Z,89.40
2022-11-25T03:33:12.004Z,89.30
2022-11-25T03:35:38.858Z,89.50
2022-11-25T03:38:08.029Z,89.30
2022-11-25T03:40:34.837Z,89.40
2022-11-25T03:43:01.692Z,89.40
2022-11-25T03:45:28.518Z,89.40
2022-11-25T03:47:55.505Z,89.40
2022-11-25T03:50:23.851Z,89.40
2022-11-25T03:52:50.780Z,89.40
2022-11-25T03:55:17.736Z,89.40
2022-11-25T03:57:44.520Z,89.40
2022-11-25T04:00:15.378Z,89.30
2022-11-25T04:02:42.202Z,89.30
2022-11-25T04:05:09.500Z,89.30
2022-11-25T04:07:37.747Z,89.30
2022-11-25T04:10:05.382Z,89.30
2022-11-25T04:12:47.445Z,89.30
2022-11-25T04:15:15.268Z,89.20
2022-11-25T04:17:42.466Z,89.20
2022-11-25T04:20:11.257Z,89.20
2022-11-25T04:22:39.639Z,89.30
2022-11-25T04:25:07.299Z,89.30
2022-11-25T04:27:34.392Z,89.20
2022-11-25T04:30:01.406Z,89.10
2022-11-25T04:32:28.476Z,89.10
2022-11-25T04:34:55.269Z,89.10
2022-11-25T04:37:23.068Z,89.20
2022-11-25T04:39:51.704Z,89.20
2022-11-25T04:42:37.893Z,89.20
2022-11-25T04:45:22.469Z,89.20
2022-11-25T04:47:50.417Z,89.20
2022-11-25T04:50:19.756Z,89.20
2022-11-25T04:52:46.734Z,89.20
2022-11-25T04:55:15.649Z,89.20
2022-11-25T04:57:42.484Z,89.20
2022-11-25T05:00:11.002Z,89.20
2022-11-25T05:02:37.897Z,89.20
2022-11-25T05:05:06.138Z,89.20
2022-11-25T05:07:33.122Z,89.20
2022-11-25T05:10:00.237Z,89.20
2022-11-25T05:12:29.859Z,89.10
2022-11-25T05:14:57.352Z,89.10
2022-11-25T05:17:25.774Z,89.10
2022-11-25T05:19:52.857Z,89.10
2022-11-25T05:22:22.954Z,89.10
2022-11-25T05:24:49.962Z,89.10
2022-11-25T05:27:18.111Z,89.10
2022-11-25T05:29:51.423Z,89.10
2022-11-25T05:32:21.205Z,89.10
2022-11-25T05:34:48.094Z,89.10
2022-11-25T05:37:16.826Z,89.10
2022-11-25T05:39:46.711Z,89.10
2022-11-25T05:42:13.543Z,89.10
2022-11-25T05:44:40.350Z,89.00
2022-11-25T05:47:08.921Z,89.10
2022-11-25T05:49:36.457Z,89.10
2022-11-25T05:52:03.361Z,89.10
2022-11-25T05:54:30.350Z,89.10
2022-11-25T05:56:57.221Z,89.10
2022-11-25T05:59:24.556Z,89.10
2022-11-25T06:01:53.124Z,89.10
2022-11-25T06:04:21.356Z,89.10
2022-11-25T06:06:48.222Z,89.10
2022-11-25T06:09:15.041Z,89.00
2022-11-25T06:11:41.902Z,89.10
2022-11-25T06:14:09.439Z,89.00
2022-11-25T06:16:40.807Z,89.00
2022-11-25T06:19:07.745Z,89.10
2022-11-25T06:21:36.910Z,89.10
2022-11-25T06:24:04.122Z,89.10
2022-11-25T06:26:30.882Z,89.10
2022-11-25T06:28:57.686Z,89.10
2022-11-25T06:31:31.617Z,89.10
2022-11-25T06:33:58.610Z,89.10
2022-11-25T06:36:25.466Z,89.10
2022-11-25T06:38:54.532Z,89.00
2022-11-25T06:41:22.567Z,89.10
2022-11-25T06:43:49.495Z,89.10
2022-11-25T06:46:23.062Z,89.10
2022-11-25T06:48:52.030Z,89.20
2022-11-25T06:51:19.130Z,89.20
2022-11-25T06:53:46.386Z,89.10
2022-11-25T06:56:17.221Z,89.20
2022-11-25T06:58:45.770Z,89.10
2022-11-25T07:01:14.632Z,89.10
2022-11-25T07:03:43.781Z,89.20
2022-11-25T07:06:12.614Z,89.20
2022-11-25T07:08:40.081Z,89.10
2022-11-25T07:11:10.259Z,89.20
2022-11-25T07:13:38.707Z,89.20
2022-11-25T07:16:07.432Z,89.30
2022-11-25T07:18:36.907Z,89.20
2022-11-25T07:21:08.751Z,89.30
2022-11-25T07:23:36.736Z,89.30
2022-11-25T07:26:04.970Z,89.30
2022-11-25T07:28:31.805Z,89.20
2022-11-25T07:31:23.243Z,89.20
2022-11-25T07:33:51.810Z,89.20
2022-11-25T07:36:19.296Z,89.30
2022-11-25T07:38:47.021Z,89.30
2022-11-25T07:41:16.080Z,89.30
2022-11-25T07:43:45.249Z,89.30
2022-11-25T07:46:16.427Z,89.40
2022-11-25T07:48:44.705Z,89.30
2022-11-25T07:51:16.930Z,89.40
2022-11-25T07:53:43.990Z,89.40
2022-11-25T07:56:10.777Z,89.40
2022-11-25T07:58:42.816Z,89.50
2022-11-25T08:01:18.704Z,89.40
2022-11-25T08:03:47.465Z,89.40
2022-11-25T08:06:16.355Z,89.40
2022-11-25T08:08:44.067Z,89.50
2022-11-25T08:11:13.345Z,89.40
2022-11-25T08:13:40.702Z,89.40
2022-11-25T08:16:08.923Z,89.50
2022-11-25T08:18:37.285Z,89.50
2022-11-25T08:21:06.149Z,89.40
2022-11-25T08:23:34.458Z,89.40
2022-11-25T08:26:04.926Z,89.40
2022-11-25T08:28:31.786Z,89.40
2022-11-25T08:31:05.707Z,89.40
2022-11-25T08:33:33.286Z,89.40
2022-11-25T08:36:01.531Z,89.40
2022-11-25T08:38:29.155Z,89.30
2022-11-25T08:40:56.481Z,89.30
2022-11-25T08:43:29.046Z,89.30
2022-11-25T08:45:56.674Z,89.30
2022-11-25T08:48:23.837Z,89.30
2022-11-25T08:50:53.635Z,89.30
2022-11-25T08:53:22.602Z,89.30
2022-11-25T08:55:49.533Z,89.70
2022-11-25T08:58:16.741Z,90.30
2022-11-25T09:00:44.813Z,90.30
2022-11-25T09:03:11.804Z,90.40
2022-11-25T09:05:41.211Z,89.90
2022-11-25T09:08:10.864Z,89.10
2022-11-25T09:10:39.931Z,88.30
2022-11-25T09:13:07.338Z,87.90
2022-11-25T09:15:36.554Z,87.60
2022-11-25T09:18:06.134Z,88.60
2022-11-25T09:20:34.204Z,89.10
2022-11-25T09:23:02.289Z,89.10
2022-11-25T09:25:30.378Z,88.50
2022-11-25T09:27:58.801Z,87.70
2022-11-25T09:30:26.033Z,87.60
2022-11-25T09:32:54.878Z,87.00
2022-11-25T09:35:31.528Z,87.10
2022-11-25T09:37:58.349Z,87.10
2022-11-25T09:40:36.382Z,87.10
2022-11-25T09:43:36.823Z,86.80
2022-11-25T09:46:37.416Z,86.60
2022-11-25T09:49:15.012Z,86.80
2022-11-25T09:51:51.681Z,86.30
2022-11-25T09:54:23.332Z,86.30
2022-11-25T09:56:55.814Z,86.20
2022-11-25T09:59:31.925Z,86.10
2022-11-25T10:02:02.071Z,86.20
2022-11-25T10:04:34.589Z,85.60
2022-11-25T10:07:03.851Z,85.50
2022-11-25T10:09:33.940Z,85.60
2022-11-25T10:12:06.006Z,85.10
2022-11-25T10:14:41.930Z,85.60
2022-11-25T10:17:15.115Z,85.00
2022-11-25T10:19:52.148Z,84.80
2022-11-25T10:22:25.632Z,84.00
2022-11-25T10:24:56.768Z,84.30
2022-11-25T10:27:31.219Z,83.70
2022-11-25T10:30:04.933Z,83.60
2022-11-25T10:32:40.821Z,83.90
2022-11-25T10:35:17.097Z,83.50
2022-11-25T10:37:46.106Z,83.60
2022-11-25T10:40:15.933Z,83.70
2022-11-25T10:42:43.390Z,83.20
2022-11-25T10:45:12.567Z,83.10
2022-11-25T10:48:03.855Z,83.40
2022-11-25T10:50:40.471Z,83.30
2022-11-25T10:53:13.878Z,83.40
2022-11-25T10:55:58.032Z,83.10
2022-11-25T10:58:30.604Z,83.30
2022-11-25T11:01:13.028Z,83.20
2022-11-25T11:03:40.924Z,83.20
2022-11-25T11:06:32.714Z,83.20
2022-11-25T11:08:59.681Z,83.40
2022-11-25T11:11:26.796Z,83.20
2022-11-25T11:14:12.832Z,83.20
2022-11-25T11:16:43.000Z,83.10
2022-11-25T11:19:22.085Z,83.10
2022-11-25T11:21:50.102Z,83.20
2022-11-25T11:24:26.826Z,83.30
2022-11-25T11:27:02.887Z,83.40
2022-11-25T11:29:30.082Z,83.00
2022-11-25T11:32:01.663Z,83.10
2022-11-25T11:34:44.987Z,83.10
2022-11-25T11:37:32.440Z,82.90
2022-11-25T11:40:14.711Z,83.10
2022-11-25T11:42:52.172Z,83.10
2022-11-25T11:45:35.650Z,82.90
2022-11-25T11:48:16.007Z,82.90
2022-11-25T11:50:47.696Z,83.20
2022-11-25T11:53:23.745Z,82.50
2022-11-25T11:56:26.896Z,82.30
2022-11-25T11:58:57.453Z,81.90
2022-11-25T12:01:43.629Z,81.70
2022-11-25T12:04:20.033Z,81.80
2022-11-25T12:07:02.093Z,82.00
2022-11-25T12:09:32.338Z,81.90
2022-11-25T12:12:04.390Z,81.80
2022-11-25T12:14:40.007Z,81.90
2022-11-25T12:17:13.560Z,82.20
2022-11-25T12:19:47.482Z,82.40
2022-11-25T12:22:21.321Z,82.10
2022-11-25T12:24:52.623Z,82.30
2022-11-25T12:27:23.432Z,81.90
2022-11-25T12:29:54.001Z,82.30
2022-11-25T12:32:58.433Z,82.20
2022-11-25T12:35:38.870Z,81.90
2022-11-25T12:38:19.064Z,82.10
2022-11-25T12:40:50.055Z,81.80
2022-11-25T12:43:28.692Z,81.70
2022-11-25T12:46:07.178Z,81.70
2022-11-25T12:48:41.464Z,81.60
2022-11-25T12:51:16.401Z,81.60
2022-11-25T12:53:46.837Z,81.50
2022-11-25T12:56:19.249Z,81.40
2022-11-25T12:58:53.847Z,81.40
2022-11-25T13:01:48.805Z,81.60
2022-11-25T13:04:52.518Z,81.60
2022-11-25T13:07:28.264Z,81.60
2022-11-25T13:10:28.882Z,81.70
2022-11-25T13:13:26.248Z,81.90
2022-11-25T13:15:55.191Z,81.90
2022-11-25T13:18:24.943Z,82.00
2022-11-25T13:20:52.940Z,82.10
2022-11-25T13:23:25.065Z,82.10
2022-11-25T13:25:53.757Z,82.10
2022-11-25T13:28:32.091Z,82.10
2022-11-25T13:31:19.672Z,82.20
2022-11-25T13:34:02.058Z,82.20
2022-11-25T13:36:44.812Z,82.20
2022-11-25T13:39:16.690Z,82.30
2022-11-25T13:41:49.175Z,82.20
2022-11-25T13:44:28.368Z,82.30
2022-11-25T13:46:58.192Z,82.30
2022-11-25T13:49:36.547Z,82.20
2022-11-25T13:52:26.022Z,82.30
2022-11-25T13:54:56.023Z,82.30
2022-11-25T13:57:27.906Z,82.30
2022-11-25T13:59:58.022Z,82.40
2022-11-25T14:02:38.219Z,82.30
2022-11-25T14:05:31.087Z,82.30
2022-11-25T14:08:10.965Z,82.30
2022-11-25T14:10:45.890Z,82.30
2022-11-25T14:13:41.182Z,82.30
2022-11-25T14:16:24.660Z,82.50
2022-11-25T14:22:53.826Z,82.50
2022-11-25T14:25:23.268Z,82.50
2022-11-25T14:28:00.984Z,82.70
2022-11-25T14:30:31.552Z,82.70
2022-11-25T14:33:02.573Z,82.70
2022-11-25T14:35:40.075Z,82.80
2022-11-25T14:38:14.719Z,82.80
2022-11-25T14:40:49.055Z,82.90
2022-11-25T14:43:25.112Z,83.00
2022-11-25T14:46:11.379Z,83.10
2022-11-25T14:48:38.603Z,83.10
2022-11-25T14:51:07.321Z,83.10
2022-11-25T14:53:47.325Z,83.20
2022-11-25T14:56:16.960Z,83.20
2022-11-25T14:58:50.188Z,83.20
2022-11-25T15:01:19.254Z,83.20
2022-11-25T15:03:47.302Z,83.20
2022-11-25T15:06:16.058Z,83.20
2022-11-25T15:08:45.218Z,83.20
2022-11-25T15:11:16.826Z,83.20
2022-11-25T15:13:46.617Z,83.20
2022-11-25T15:16:18.435Z,83.20
2022-11-25T15:18:48.987Z,83.30
2022-11-25T15:21:19.344Z,83.30
2022-11-25T15:23:46.384Z,83.30
2022-11-25T15:26:18.718Z,83.40
2022-11-25T15:28:46.289Z,83.40
2022-11-25T15:31:20.696Z,83.40
2022-11-25T15:33:54.357Z,83.50
2022-11-25T15:36:22.605Z,83.50
2022-11-25T15:38:49.541Z,83.50
2022-11-25T15:41:25.864Z,83.60
2022-11-25T15:43:55.581Z,83.60
2022-11-25T15:46:25.054Z,83.70
2022-11-25T15:48:55.863Z,83.70
2022-11-25T15:51:31.771Z,83.70
2022-11-25T15:54:05.036Z,83.70
2022-11-25T15:56:35.584Z,83.70
2022-11-25T15:59:02.466Z,83.70
2022-11-25T16:01:31.188Z,83.80
2022-11-25T16:04:11.186Z,83.80
2022-11-25T16:07:01.105Z,83.90
2022-11-25T16:09:31.375Z,83.90
2022-11-25T16:12:05.492Z,84.00
2022-11-25T16:14:35.831Z,84.10
2022-11-25T16:17:08.196Z,84.10
2022-11-25T16:19:40.496Z,84.10
2022-11-25T16:22:15.073Z,84.10
2022-11-25T16:24:57.310Z,84.10
2022-11-25T16:27:29.040Z,84.20
2022-11-25T16:30:08.256Z,84.20
2022-11-25T16:32:36.441Z,84.20
2022-11-25T16:35:15.088Z,84.30
2022-11-25T16:37:47.137Z,84.30
2022-11-25T16:40:16.873Z,84.40
2022-11-25T16:42:47.040Z,84.40
2022-11-25T16:45:22.392Z,84.50
2022-11-25T16:47:50.984Z,84.50
2022-11-25T16:50:20.015Z,84.50
2022-11-25T16:52:46.932Z,84.60
2022-11-25T16:55:14.429Z,84.70
2022-11-25T16:57:42.370Z,84.80
2022-11-25T17:00:14.463Z,84.70
2022-11-25T17:02:41.515Z,84.70
2022-11-25T17:05:18.071Z,84.70
2022-11-25T17:07:45.068Z,84.70
2022-11-25T17:10:12.038Z,84.80
2022-11-25T17:12:41.465Z,84.80
2022-11-25T17:15:14.428Z,84.70
2022-11-25T17:17:41.426Z,84.90
2022-11-25T17:20:15.907Z,84.90
2022-11-25T17:22:42.902Z,85.00
2022-11-25T17:25:11.683Z,84.90
2022-11-25T17:27:39.093Z,85.00
2022-11-25T17:30:08.000Z,84.90
2022-11-25T17:32:35.727Z,84.80
2022-11-25T17:35:02.551Z,84.90
2022-11-25T17:37:31.758Z,84.90
2022-11-25T17:39:58.624Z,84.90
2022-11-25T17:42:30.112Z,84.80
2022-11-25T17:44:57.253Z,84.80
2022-11-25T17:47:24.559Z,84.90
2022-11-25T17:49:51.999Z,84.90
2022-11-25T17:52:18.963Z,85.00
2022-11-25T17:54:47.253Z,84.90
2022-11-25T17:57:18.858Z,84.90
2022-11-25T17:59:45.725Z,85.00
2022-11-25T18:02:18.943Z,84.90
2022-11-25T18:04:46.080Z,84.90
2022-11-25T18:07:13.173Z,84.90
2022-11-25T18:09:40.035Z,84.90
2022-11-25T18:12:13.166Z,84.90
2022-11-25T18:14:43.143Z,84.90
2022-11-25T18:17:16.777Z,85.00
2022-11-25T18:19:44.209Z,85.00
2022-11-25T18:22:13.990Z,85.00
2022-11-25T18:24:41.366Z,85.00
2022-11-25T18:27:19.918Z,85.10
2022-11-25T18:29:47.068Z,85.20
2022-11-25T18:32:14.146Z,85.20
2022-11-25T18:34:40.952Z,85.30
2022-11-25T18:37:11.070Z,85.30
2022-11-25T18:39:38.391Z,85.30
2022-11-25T18:42:06.961Z,85.40
2022-11-25T18:44:42.010Z,85.40
2022-11-25T18:47:11.260Z,85.50
2022-11-25T18:49:38.060Z,85.60
2022-11-25T18:52:05.112Z,85.60
2022-11-25T18:54:32.098Z,85.70
2022-11-25T18:56:59.117Z,85.70
2022-11-25T18:59:31.375Z,85.70
2022-11-25T19:02:00.301Z,85.70
2022-11-25T19:04:27.741Z,85.80
2022-11-25T19:06:54.541Z,85.80
2022-11-25T19:09:21.893Z,85.80
2022-11-25T19:11:52.368Z,85.90
2022-11-25T19:14:28.952Z,85.90
2022-11-25T19:16:58.538Z,85.90
2022-11-25T19:19:26.803Z,85.90
2022-11-25T19:21:53.777Z,86.00
2022-11-25T19:24:20.694Z,86.10
2022-11-25T19:26:49.769Z,86.00
2022-11-25T19:29:19.951Z,86.00
2022-11-25T19:31:49.412Z,86.10
2022-11-25T19:34:27.131Z,86.00
2022-11-25T19:36:53.945Z,86.10
2022-11-25T19:39:20.870Z,86.10
2022-11-25T19:41:48.348Z,86.10
2022-11-25T19:44:15.252Z,86.10
2022-11-25T19:47:07.454Z,86.10
2022-11-25T19:49:34.450Z,86.20
2022-11-25T19:52:01.423Z,86.20
2022-11-25T19:54:29.455Z,86.20
2022-11-25T19:56:56.253Z,86.20
2022-11-25T19:59:23.155Z,86.30
2022-11-25T20:01:50.107Z,86.10
2022-11-25T20:04:19.883Z,86.20
2022-11-25T20:06:49.349Z,86.20
2022-11-25T20:09:16.151Z,86.20
2022-11-25T20:11:43.445Z,86.30
2022-11-25T20:14:10.324Z,86.40
2022-11-25T20:16:40.226Z,86.30
2022-11-25T20:19:07.507Z,86.30
2022-11-25T20:21:37.688Z,86.40
2022-11-25T20:24:12.642Z,86.30
2022-11-25T20:26:41.534Z,86.20
2022-11-25T20:29:16.045Z,86.40
2022-11-25T20:31:43.051Z,86.30
2022-11-25T20:34:09.867Z,86.50
2022-11-25T20:36:37.054Z,86.60
2022-11-25T20:39:05.588Z,86.60
2022-11-25T20:41:33.328Z,86.60
2022-11-25T20:44:00.372Z,86.60
2022-11-25T20:46:29.924Z,86.60
2022-11-25T20:48:58.804Z,86.50
2022-11-25T20:51:26.062Z,86.50
2022-11-25T20:53:55.883Z,86.60
2022-11-25T20:56:27.208Z,86.60
2022-11-25T20:58:54.536Z,86.70
2022-11-25T21:01:21.531Z,86.80
2022-11-25T21:03:50.430Z,86.80
2022-11-25T21:06:19.498Z,86.80
2022-11-25T21:08:48.705Z,86.80
2022-11-25T21:11:16.592Z,86.80
2022-11-25T21:13:45.935Z,86.70
2022-11-25T21:16:13.009Z,86.80
2022-11-25T21:18:41.351Z,86.70
2022-11-25T21:21:15.064Z,86.80
2022-11-25T21:23:42.841Z,86.80
2022-11-25T21:26:16.570Z,86.70
2022-11-25T21:28:46.892Z,86.90
2022-11-25T21:31:16.674Z,86.90
2022-11-25T21:33:43.998Z,86.70
2022-11-25T21:36:17.556Z,86.90
2022-11-25T21:38:44.952Z,86.90
2022-11-25T21:41:11.975Z,86.90
2022-11-25T21:43:41.912Z,86.90
2022-11-25T21:46:13.913Z,87.00
2022-11-25T21:48:41.005Z,87.00
2022-11-25T21:51:11.020Z,86.80
2022-11-25T21:53:37.890Z,86.90
2022-11-25T21:56:13.386Z,87.00
2022-11-25T21:58:40.977Z,87.00
2022-11-25T22:01:13.038Z,86.80
2022-11-25T22:03:39.971Z,86.80
2022-11-25T22:06:18.648Z,87.00
2022-11-25T22:08:45.609Z,87.10
2022-11-25T22:11:15.416Z,87.00
2022-11-25T22:13:43.246Z,86.90
2022-11-25T22:16:15.731Z,87.00
2022-11-25T22:18:43.606Z,86.90
2022-11-25T22:21:12.443Z,86.90
2022-11-25T22:23:39.626Z,87.00
2022-11-25T22:26:07.601Z,87.00
2022-11-25T22:28:35.721Z,87.00
2022-11-25T22:31:06.833Z,87.00
2022-11-25T22:33:37.078Z,87.00
2022-11-25T22:36:04.965Z,87.00
2022-11-25T22:38:32.233Z,87.00
2022-11-25T22:41:02.274Z,87.00
2022-11-25T22:43:32.156Z,87.00
2022-11-25T22:45:59.573Z,87.10
2022-11-25T22:48:30.782Z,87.10
2022-11-25T22:50:59.131Z,87.10
2022-11-25T22:53:26.415Z,87.20
2022-11-25T22:55:56.799Z,87.20
2022-11-25T22:58:24.277Z,87.10
2022-11-25T23:00:52.581Z,87.30
2022-11-25T23:03:22.827Z,87.20
2022-11-25T23:05:51.471Z,87.30
2022-11-25T23:08:21.457Z,87.20
2022-11-25T23:10:49.463Z,87.30
2022-11-25T23:13:18.489Z,87.40
2022-11-25T23:15:49.197Z,87.30
2022-11-25T23:18:21.912Z,87.30
2022-11-25T23:20:49.413Z,87.30
2022-11-25T23:23:18.949Z,87.30
2022-11-25T23:25:47.911Z,87.30
2022-11-25T23:28:16.305Z,87.20
2022-11-25T23:30:48.803Z,87.30
2022-11-25T23:33:21.686Z,87.40
2022-11-25T23:35:48.654Z,87.50
2022-11-25T23:38:18.853Z,87.50
2022-11-25T23:40:47.031Z,87.40
2022-11-25T23:43:14.807Z,87.40
2022-11-25T23:45:47.092Z,87.40
2022-11-25T23:48:14.034Z,87.40
2022-11-25T23:50:41.264Z,87.40
2022-11-25T23:53:19.506Z,87.50
2022-11-25T23:55:48.493Z,87.50
2022-11-25T23:58:18.262Z,87.30
